Time;durP1;ratioP1;P1;durP2;ratioP2;P2;SDS_P1;SDS_P2;PMS_P1;PMS_P2;Temp;Humidity;BMP_temperature;BMP_pressure;BME280_temperature;BME280_humidity;BME280_pressure;Samples;Min_cycle;Max_cycle;Signal;HPM_P1;HPM_P2
2022/01/08 00:00:26;;;;;;;2.80;2.60;;;1.70;95.50;;;;;;6249147;22;20503;-83
2022/01/08 00:02:54;;;;;;;2.97;2.30;;;1.60;95.40;;;;;;6247348;22;20165;-84
2022/01/08 00:05:22;;;;;;;3.10;2.10;;;1.70;94.90;;;;;;6245431;22;20201;-84
2022/01/08 00:07:51;;;;;;;2.47;1.83;;;1.70;94.80;;;;;;6246684;22;20165;-84
2022/01/08 00:10:18;;;;;;;2.70;2.20;;;1.60;94.40;;;;;;6245541;22;20200;-84
2022/01/08 00:12:45;;;;;;;2.20;2.00;;;1.40;94.80;;;;;;6246802;22;20169;-85
2022/01/08 00:15:12;;;;;;;2.30;2.10;;;1.40;94.90;;;;;;6245095;22;20193;-84
2022/01/08 00:17:39;;;;;;;2.57;2.17;;;1.30;94.90;;;;;;6247031;22;20272;-83
2022/01/08 00:20:07;;;;;;;2.70;2.10;;;1.30;95.10;;;;;;6247249;22;20196;-85
2022/01/08 00:22:34;;;;;;;2.40;2.20;;;1.20;95.20;;;;;;6248175;22;20225;-83
2022/01/08 00:25:03;;;;;;;2.30;2.10;;;1.20;95.30;;;;;;6247842;22;20205;-84
2022/01/08 00:27:30;;;;;;;2.13;1.97;;;1.30;95.00;;;;;;6246078;22;20169;-84
2022/01/08 00:29:57;;;;;;;2.20;2.00;;;1.20;94.90;;;;;;6245485;22;20201;-84
2022/01/08 00:32:25;;;;;;;3.57;2.00;;;1.20;95.00;;;;;;6246181;22;20165;-84
2022/01/08 00:34:52;;;;;;;2.40;1.90;;;1.10;95.30;;;;;;6244880;22;20724;-84
2022/01/08 00:37:19;;;;;;;2.70;2.10;;;1.00;95.40;;;;;;6245778;22;20626;-86
2022/01/08 00:39:47;;;;;;;2.40;1.90;;;1.00;95.60;;;;;;6245578;22;20193;-84
2022/01/08 00:42:16;;;;;;;2.60;2.33;;;1.00;95.90;;;;;;6246163;22;20226;-83
2022/01/08 00:44:43;;;;;;;2.40;2.10;;;0.90;96.00;;;;;;6244468;22;20192;-85
2022/01/08 00:47:10;;;;;;;2.20;2.00;;;0.90;95.90;;;;;;6245857;22;20248;-84
2022/01/08 00:49:38;;;;;;;2.40;2.10;;;0.90;96.00;;;;;;6244931;22;20196;-84
2022/01/08 00:52:06;;;;;;;2.30;1.97;;;0.90;95.90;;;;;;6246405;22;20172;-84
2022/01/08 00:54:35;;;;;;;3.47;2.53;;;0.80;95.80;;;;;;6244132;22;20196;-85
2022/01/08 00:57:05;;;;;;;2.33;2.13;;;0.90;95.80;;;;;;6244794;22;20250;-85
2022/01/08 00:59:34;;;;;;;3.10;2.10;;;0.90;95.90;;;;;;6244079;22;20202;-84
2022/01/08 01:02:01;;;;;;;2.23;2.03;;;0.90;95.80;;;;;;6245044;22;20748;-84
2022/01/08 01:04:28;;;;;;;2.87;2.20;;;0.90;95.80;;;;;;6244077;22;20651;-85
2022/01/08 01:06:56;;;;;;;2.60;2.27;;;0.80;96.00;;;;;;6245817;22;20461;-83
2022/01/08 01:09:23;;;;;;;3.80;2.17;;;0.80;95.90;;;;;;6244645;22;20203;-85
2022/01/08 01:11:55;;;;;;;4.00;2.70;;;0.70;95.90;;;;;;6244902;22;20169;-85
2022/01/08 01:14:22;;;;;;;2.90;2.33;;;0.70;96.10;;;;;;6243652;22;20195;-84
2022/01/08 01:16:50;;;;;;;2.77;2.33;;;0.60;96.10;;;;;;6245088;22;20197;-84
2022/01/08 01:19:17;;;;;;;3.43;2.40;;;0.70;96.30;;;;;;6243649;22;20207;-84
2022/01/08 01:21:44;;;;;;;2.53;2.33;;;0.60;96.40;;;;;;6243955;22;20562;-83
2022/01/08 01:24:16;;;;;;;3.93;2.80;;;0.50;96.40;;;;;;6243794;22;20267;-84
2022/01/08 01:27:00;;;;;;;3.27;2.43;;;0.50;96.50;;;;;;6245266;22;20168;-86
2022/01/08 01:29:34;;;;;;;3.37;2.67;;;0.50;96.70;;;;;;6246679;22;20203;-84
2022/01/08 01:43:27;;;;;;;3.37;3.00;;;0.30;96.70;;;;;;6246234;23;20580;-86
2022/01/08 01:48:39;;;;;;;3.33;2.50;;;0.00;96.80;;;;;;6248500;23;20500;-83
2022/01/08 01:51:06;;;;;;;4.20;2.97;;;-0.10;97.40;;;;;;6247967;22;20200;-83
2022/01/08 01:53:33;;;;;;;4.43;3.20;;;0.00;97.40;;;;;;6248380;22;20461;-82
2022/01/08 01:56:00;;;;;;;3.83;2.87;;;0.00;97.30;;;;;;6247960;22;20207;-86
2022/01/08 01:58:27;;;;;;;4.60;3.00;;;0.00;97.00;;;;;;6248871;22;20472;-83
2022/01/08 02:00:54;;;;;;;4.57;2.60;;;-0.10;97.00;;;;;;6247984;22;20710;-83
2022/01/08 02:03:21;;;;;;;4.50;2.83;;;-0.10;97.10;;;;;;6247383;22;20177;-84
2022/01/08 02:05:51;;;;;;;3.50;3.00;;;-0.20;97.10;;;;;;6247094;22;20507;-84
2022/01/08 02:08:18;;;;;;;5.87;3.00;;;-0.20;96.90;;;;;;6248016;22;20525;-83
2022/01/08 02:10:45;;;;;;;5.43;3.40;;;-0.20;96.90;;;;;;6248291;22;20510;-83
2022/01/08 02:13:12;;;;;;;5.27;2.73;;;-0.30;96.90;;;;;;6248223;22;20262;-83
2022/01/08 02:15:41;;;;;;;4.47;2.80;;;-0.40;97.30;;;;;;6247195;22;20280;-84
2022/01/08 02:18:07;;;;;;;3.60;2.60;;;-0.50;97.40;;;;;;6248799;22;20172;-84
2022/01/08 02:20:36;;;;;;;3.17;2.47;;;-0.50;97.80;;;;;;6246320;22;20195;-84
2022/01/08 02:23:03;;;;;;;3.50;2.40;;;-0.50;97.80;;;;;;6246079;22;20257;-85
2022/01/08 02:25:30;;;;;;;3.37;2.13;;;-0.50;97.80;;;;;;6246888;22;20193;-85
2022/01/08 02:27:57;;;;;;;3.93;2.60;;;-0.40;97.70;;;;;;6248207;22;20174;-83
2022/01/08 02:30:24;;;;;;;3.60;2.20;;;-0.40;97.60;;;;;;6246739;22;20279;-86
2022/01/08 02:32:51;;;;;;;2.67;2.40;;;-0.50;97.50;;;;;;6247798;22;20413;-83
2022/01/08 02:35:21;;;;;;;2.47;2.27;;;-0.50;97.30;;;;;;6248226;22;20217;-84
2022/01/08 02:37:50;;;;;;;3.40;2.20;;;-0.50;97.10;;;;;;6249152;22;20272;-84
2022/01/08 02:40:18;;;;;;;3.10;2.10;;;-0.60;97.10;;;;;;6246465;22;20230;-84
2022/01/08 02:42:52;;;;;;;3.00;2.40;;;-0.60;97.20;;;;;;6248160;22;20208;-84
2022/01/08 02:45:21;;;;;;;2.87;2.30;;;-0.60;97.30;;;;;;6246165;22;20197;-85
2022/01/08 02:47:48;;;;;;;3.30;2.40;;;-0.70;97.40;;;;;;6246917;22;20757;-83
2022/01/08 02:50:15;;;;;;;3.57;2.57;;;-0.70;97.40;;;;;;6246181;22;20590;-86
2022/01/08 02:52:42;;;;;;;2.30;2.10;;;-0.80;97.60;;;;;;6246416;22;20619;-85
2022/01/08 02:55:14;;;;;;;2.70;2.17;;;-0.80;97.60;;;;;;6245268;22;20201;-85
2022/01/08 02:57:41;;;;;;;3.10;2.50;;;-0.80;97.40;;;;;;6246886;22;20164;-85
2022/01/08 03:00:11;;;;;;;4.20;2.50;;;-0.80;97.50;;;;;;6245577;22;20197;-84
2022/01/08 03:02:41;;;;;;;2.60;2.23;;;-0.80;97.40;;;;;;6246620;22;20610;-84
2022/01/08 03:05:11;;;;;;;2.80;2.50;;;-0.90;97.90;;;;;;6245168;22;20197;-86
2022/01/08 03:07:40;;;;;;;3.60;2.23;;;-0.90;97.90;;;;;;6246642;22;20175;-85
2022/01/08 03:10:08;;;;;;;3.73;2.43;;;-0.90;97.70;;;;;;6246191;22;20634;-86
2022/01/08 03:12:38;;;;;;;3.23;2.33;;;-0.90;97.80;;;;;;6249213;22;20241;-86
2022/01/08 03:15:07;;;;;;;2.93;2.50;;;-0.90;97.60;;;;;;6248870;22;20193;-84
2022/01/08 03:17:34;;;;;;;4.80;2.40;;;-0.90;97.50;;;;;;6250551;22;20228;-84
2022/01/08 03:20:05;;;;;;;2.73;2.53;;;-1.00;98.00;;;;;;6249607;22;20207;-88
2022/01/08 03:22:32;;;;;;;3.67;2.57;;;-1.00;97.80;;;;;;6251289;22;20176;-87
2022/01/08 03:25:00;;;;;;;3.50;2.50;;;-1.00;97.70;;;;;;6248603;22;20197;-84
2022/01/08 03:27:28;;;;;;;2.40;2.20;;;-1.10;97.60;;;;;;6250148;22;20667;-86
2022/01/08 03:29:56;;;;;;;3.10;2.30;;;-1.20;97.70;;;;;;6249974;22;20676;-85
2022/01/08 03:32:23;;;;;;;2.67;2.20;;;-1.20;97.90;;;;;;6251731;22;20500;-85
2022/01/08 03:34:50;;;;;;;3.27;2.40;;;-1.20;98.10;;;;;;6250689;22;20291;-87
2022/01/08 03:37:17;;;;;;;4.10;2.50;;;-1.30;98.00;;;;;;6251517;22;20597;-85
2022/01/08 03:39:44;;;;;;;3.20;2.70;;;-1.30;98.10;;;;;;6250475;22;20196;-82
2022/01/08 03:42:12;;;;;;;19.03;11.63;;;-1.30;98.30;;;;;;6252207;22;20250;-85
2022/01/08 03:44:39;;;;;;;7.63;5.50;;;-1.20;98.30;;;;;;6254791;22;20234;-86
2022/01/08 03:47:30;;;;;;;3.63;2.53;;;-1.20;98.30;;;;;;6246745;22;20617;-85
2022/01/08 03:49:58;;;;;;;26.27;17.00;;;-1.20;98.20;;;;;;6245544;22;20198;-85
2022/01/08 03:52:26;;;;;;;20.10;13.63;;;-1.20;98.40;;;;;;6247122;22;20174;-86
2022/01/08 03:54:53;;;;;;;2.47;2.20;;;-1.20;98.50;;;;;;6245517;22;20686;-86
2022/01/08 03:57:20;;;;;;;2.47;2.20;;;-1.20;98.30;;;;;;6247100;22;20169;-86
2022/01/08 03:59:47;;;;;;;3.60;2.73;;;-1.30;98.20;;;;;;6246291;22;20268;-86
2022/01/08 04:02:15;;;;;;;10.10;6.60;;;-1.30;98.40;;;;;;6247302;22;20169;-85
2022/01/08 04:04:42;;;;;;;17.80;11.20;;;-1.00;99.00;;;;;;6245225;22;20193;-85
2022/01/08 04:07:09;;;;;;;6.33;4.10;;;-1.00;99.00;;;;;;6246790;22;20252;-85
2022/01/08 04:09:37;;;;;;;19.87;13.63;;;-1.00;99.00;;;;;;6246619;22;20265;-85
2022/01/08 04:12:06;;;;;;;3.03;2.53;;;-1.10;98.70;;;;;;6246470;22;20165;-87
2022/01/08 04:14:47;;;;;;;2.47;2.10;;;-1.10;98.30;;;;;;6245773;22;20244;-86
2022/01/08 04:17:16;;;;;;;10.77;6.80;;;-1.10;98.50;;;;;;6246933;22;20252;-87
2022/01/08 04:19:43;;;;;;;6.60;4.20;;;-1.10;98.30;;;;;;6247485;22;20193;-83
2022/01/08 04:22:12;;;;;;;9.30;6.10;;;-1.10;98.00;;;;;;6249242;22;20248;-83
2022/01/08 04:24:40;;;;;;;25.57;11.67;;;-1.00;97.80;;;;;;6250177;22;20520;-83
2022/01/08 04:27:07;;;;;;;22.20;10.77;;;-1.00;97.90;;;;;;6250918;22;20232;-85
2022/01/08 04:29:34;;;;;;;15.87;8.23;;;-0.90;97.80;;;;;;6249632;22;20199;-84
2022/01/08 04:32:01;;;;;;;15.07;6.70;;;-1.00;97.70;;;;;;6251026;22;20250;-84
2022/01/08 04:34:30;;;;;;;6.17;3.87;;;-0.90;97.70;;;;;;6248848;22;20251;-83
2022/01/08 04:36:57;;;;;;;15.97;8.47;;;-0.90;97.80;;;;;;6249898;22;20257;-84
2022/01/08 04:39:23;;;;;;;1.83;1.63;;;-0.80;97.80;;;;;;6248697;22;20720;-84
2022/01/08 04:41:51;;;;;;;3.20;2.33;;;-0.80;97.10;;;;;;6250391;22;20610;-84
2022/01/08 04:44:18;;;;;;;2.37;1.60;;;-0.80;97.20;;;;;;6249174;22;20711;-83
2022/01/08 04:46:45;;;;;;;1.53;1.43;;;-0.80;96.80;;;;;;6250510;22;20257;-83
2022/01/08 04:49:13;;;;;;;3.37;1.90;;;-0.90;96.80;;;;;;6250215;22;20598;-83
2022/01/08 04:51:41;;;;;;;1.50;1.40;;;-0.90;97.20;;;;;;6250768;22;20204;-84
2022/01/08 04:54:08;;;;;;;7.57;4.10;;;-0.80;96.90;;;;;;6249923;22;20246;-83
2022/01/08 04:56:35;;;;;;;7.23;4.23;;;-0.80;97.20;;;;;;6251063;22;20193;-84
2022/01/08 04:59:02;;;;;;;3.13;2.03;;;-0.80;97.10;;;;;;6249170;22;20177;-84
2022/01/08 05:01:29;;;;;;;2.07;1.43;;;-0.70;96.80;;;;;;6249462;22;20171;-83
2022/01/08 05:03:56;;;;;;;4.33;1.87;;;-0.70;96.60;;;;;;6250930;22;20167;-84
2022/01/08 05:06:23;;;;;;;4.57;2.93;;;-0.70;96.80;;;;;;6252718;22;20525;-83
2022/01/08 05:08:51;;;;;;;2.80;2.13;;;-0.60;97.00;;;;;;6252223;22;20233;-86
2022/01/08 05:11:18;;;;;;;4.17;2.70;;;-0.60;96.50;;;;;;6253397;22;20272;-84
2022/01/08 05:13:46;;;;;;;4.63;2.60;;;-0.50;96.20;;;;;;6252857;22;20247;-84
2022/01/08 05:16:13;;;;;;;15.03;7.73;;;-0.40;96.30;;;;;;6251308;22;20343;-84
2022/01/08 05:18:40;;;;;;;5.97;2.77;;;-0.40;96.50;;;;;;6252792;22;20251;-84
2022/01/08 05:21:14;;;;;;;1.80;1.50;;;-0.20;96.60;;;;;;6251351;22;20269;-85
2022/01/08 05:23:41;;;;;;;10.23;6.60;;;-0.10;96.50;;;;;;6252513;22;20214;-84
2022/01/08 05:26:10;;;;;;;1.63;1.50;;;-0.10;96.60;;;;;;6252050;22;20257;-83
2022/01/08 05:28:37;;;;;;;13.33;7.50;;;-0.10;96.20;;;;;;6253717;22;20185;-84
2022/01/08 05:31:04;;;;;;;3.67;2.57;;;0.10;96.80;;;;;;6251571;22;20200;-84
2022/01/08 05:33:31;;;;;;;5.77;3.10;;;0.20;96.00;;;;;;6253018;22;20221;-81
2022/01/08 05:35:58;;;;;;;6.30;3.70;;;0.30;96.30;;;;;;6253247;22;20201;-86
2022/01/08 05:38:25;;;;;;;3.67;2.77;;;0.50;95.60;;;;;;6254450;22;20169;-84
2022/01/08 05:40:52;;;;;;;7.83;4.57;;;0.50;95.50;;;;;;6254392;22;20208;-85
2022/01/08 05:43:21;;;;;;;3.87;2.33;;;0.70;95.40;;;;;;6254936;22;20232;-82
2022/01/08 05:45:48;;;;;;;5.43;2.60;;;0.50;95.10;;;;;;6253397;22;20200;-86
2022/01/08 05:48:15;;;;;;;1.80;1.53;;;0.50;95.40;;;;;;6253664;22;20193;-83
2022/01/08 05:50:42;;;;;;;2.10;1.80;;;0.60;95.30;;;;;;6248529;23;20204;-82
2022/01/08 05:53:09;;;;;;;6.87;4.23;;;0.60;94.70;;;;;;6252380;22;20173;-84
2022/01/08 05:55:36;;;;;;;4.97;3.27;;;0.60;95.30;;;;;;6251834;22;20200;-83
2022/01/08 05:58:03;;;;;;;1.60;1.50;;;0.70;95.20;;;;;;6254402;22;20180;-82
2022/01/08 06:00:32;;;;;;;3.53;2.33;;;0.70;94.90;;;;;;6252873;22;20250;-83
2022/01/08 06:02:59;;;;;;;1.83;1.30;;;0.80;95.10;;;;;;6252158;22;20248;-83
2022/01/08 06:05:26;;;;;;;2.33;1.77;;;0.70;94.70;;;;;;6251971;22;20201;-82
2022/01/08 06:07:53;;;;;;;3.13;2.13;;;0.70;94.60;;;;;;6252516;22;20169;-82
2022/01/08 06:10:20;;;;;;;1.40;1.20;;;0.80;94.60;;;;;;6252139;22;20249;-82
2022/01/08 06:12:47;;;;;;;1.40;1.30;;;0.80;94.20;;;;;;6253358;22;20477;-83
2022/01/08 06:15:14;;;;;;;6.17;3.50;;;0.80;94.20;;;;;;6252058;22;20205;-83
2022/01/08 06:17:43;;;;;;;2.37;1.40;;;0.90;94.50;;;;;;6250842;22;20258;-83
2022/01/08 06:20:11;;;;;;;4.40;2.53;;;1.00;94.90;;;;;;6253672;22;20255;-83
2022/01/08 06:22:38;;;;;;;2.80;1.63;;;1.10;94.90;;;;;;6253066;22;20166;-83
2022/01/08 06:25:06;;;;;;;2.27;1.20;;;1.10;94.90;;;;;;6253397;22;20567;-84
2022/01/08 06:27:33;;;;;;;0.90;0.90;;;1.00;94.60;;;;;;6251432;23;20253;-84
2022/01/08 06:30:02;;;;;;;8.87;5.23;;;1.00;94.70;;;;;;6250837;22;20573;-82
2022/01/08 06:32:29;;;;;;;2.07;0.97;;;1.00;95.20;;;;;;6254532;22;20248;-84
2022/01/08 06:34:58;;;;;;;1.20;1.10;;;0.90;94.90;;;;;;6249526;22;20227;-85
2022/01/08 06:37:25;;;;;;;1.77;1.40;;;0.80;95.30;;;;;;6250072;22;20169;-85
2022/01/08 06:39:54;;;;;;;1.23;1.10;;;0.90;95.40;;;;;;6248126;22;20199;-84
2022/01/08 06:42:22;;;;;;;2.17;1.60;;;0.90;95.50;;;;;;6250953;22;20597;-84
2022/01/08 06:44:49;;;;;;;1.87;1.20;;;0.90;95.60;;;;;;6250368;22;20193;-84
2022/01/08 06:47:17;;;;;;;1.80;1.27;;;0.90;95.30;;;;;;6252772;22;20200;-86
2022/01/08 06:49:44;;;;;;;2.00;1.40;;;0.90;95.30;;;;;;6253743;22;20201;-85
2022/01/08 06:52:12;;;;;;;1.53;1.10;;;1.00;95.30;;;;;;6249078;22;20195;-84
2022/01/08 06:54:39;;;;;;;2.87;1.87;;;1.00;94.90;;;;;;6248639;22;20195;-84
2022/01/08 06:57:06;;;;;;;3.23;2.47;;;1.00;95.00;;;;;;6248397;22;20169;-85
2022/01/08 06:59:34;;;;;;;3.17;2.17;;;1.10;95.30;;;;;;6246341;23;20196;-85
2022/01/08 07:02:00;;;;;;;1.87;1.50;;;1.10;94.80;;;;;;6248346;22;20173;-85
2022/01/08 07:04:27;;;;;;;3.47;2.30;;;1.20;94.30;;;;;;6247100;22;20277;-85
2022/01/08 07:06:54;;;;;;;1.07;1.00;;;1.20;94.30;;;;;;6248200;22;20179;-86
2022/01/08 07:09:27;;;;;;;1.13;0.97;;;1.20;94.30;;;;;;6248284;22;20526;-87
2022/01/08 07:11:54;;;;;;;1.30;0.97;;;1.30;93.40;;;;;;6250202;22;20551;-85
2022/01/08 07:14:21;;;;;;;1.00;0.80;;;1.40;93.20;;;;;;6249141;22;20213;-85
2022/01/08 07:16:49;;;;;;;2.23;1.30;;;1.40;92.70;;;;;;6249204;22;20193;-85
2022/01/08 07:19:18;;;;;;;3.33;2.17;;;1.40;92.80;;;;;;6247552;22;20258;-86
2022/01/08 07:21:45;;;;;;;1.67;1.30;;;1.40;92.30;;;;;;6248471;22;20183;-84
2022/01/08 07:24:12;;;;;;;2.57;2.00;;;1.50;92.10;;;;;;6246963;22;20232;-86
2022/01/08 07:26:41;;;;;;;2.80;1.80;;;1.50;92.20;;;;;;6247835;22;20165;-85
2022/01/08 07:29:08;;;;;;;3.10;1.97;;;1.50;92.00;;;;;;6247446;22;20509;-85
2022/01/08 07:31:35;;;;;;;1.90;1.30;;;1.50;91.80;;;;;;6247767;22;20665;-85
2022/01/08 07:34:02;;;;;;;3.40;2.20;;;1.50;91.90;;;;;;6245698;22;20184;-86
2022/01/08 07:36:30;;;;;;;2.47;1.37;;;1.50;92.50;;;;;;6248270;22;20169;-85
2022/01/08 07:38:57;;;;;;;1.00;0.90;;;1.50;93.10;;;;;;6248001;22;20170;-86
2022/01/08 07:41:24;;;;;;;3.03;1.93;;;1.50;93.80;;;;;;6247664;22;20173;-86
2022/01/08 07:43:54;;;;;;;2.53;1.40;;;1.60;94.40;;;;;;6248035;22;20248;-84
2022/01/08 07:46:21;;;;;;;1.27;1.00;;;1.70;94.40;;;;;;6252008;22;20185;-85
2022/01/08 07:48:54;;;;;;;1.03;1.00;;;1.80;94.40;;;;;;6248372;22;20178;-87
2022/01/08 07:51:21;;;;;;;1.10;1.00;;;1.80;95.00;;;;;;6247473;22;20235;-85
2022/01/08 07:53:48;;;;;;;2.77;1.33;;;1.60;95.60;;;;;;6246970;22;20240;-86
2022/01/08 07:56:15;;;;;;;2.10;1.00;;;1.60;96.40;;;;;;6245637;22;20193;-83
2022/01/08 07:58:43;;;;;;;3.13;2.30;;;1.70;96.60;;;;;;6248683;22;20481;-83
2022/01/08 08:01:11;;;;;;;2.70;0.90;;;1.70;97.00;;;;;;6247595;22;20301;-82
2022/01/08 08:03:38;;;;;;;1.40;0.70;;;1.70;97.00;;;;;;6248088;22;20175;-83
2022/01/08 08:06:05;;;;;;;1.30;1.20;;;1.80;97.20;;;;;;6248243;22;20271;-85
2022/01/08 08:08:32;;;;;;;2.93;1.70;;;1.70;97.40;;;;;;6250028;22;20207;-84
2022/01/08 08:10:59;;;;;;;2.10;1.20;;;1.90;98.00;;;;;;6248770;22;20205;-83
2022/01/08 08:13:26;;;;;;;1.10;0.87;;;1.90;97.90;;;;;;6250296;22;20240;-84
2022/01/08 08:15:54;;;;;;;4.63;1.67;;;2.00;97.80;;;;;;6248911;22;20284;-83
2022/01/08 08:18:23;;;;;;;1.63;0.83;;;2.00;97.80;;;;;;6249338;22;20554;-83
2022/01/08 08:20:50;;;;;;;1.10;0.90;;;2.00;97.80;;;;;;6248988;22;20206;-82
2022/01/08 08:23:17;;;;;;;1.60;0.90;;;2.10;97.90;;;;;;6249338;22;20231;-84
2022/01/08 08:25:45;;;;;;;1.47;0.80;;;2.00;97.70;;;;;;6249101;22;20201;-90
2022/01/08 08:28:24;;;;;;;1.67;1.20;;;2.00;97.70;;;;;;6251842;22;20295;-84
2022/01/08 08:30:53;;;;;;;1.33;1.03;;;2.10;97.70;;;;;;6248634;22;20248;-82
2022/01/08 08:33:22;;;;;;;0.97;0.90;;;2.20;97.30;;;;;;6250943;22;20177;-82
2022/01/08 08:35:49;;;;;;;1.20;1.10;;;2.30;97.40;;;;;;6251619;22;20192;-84
2022/01/08 08:38:16;;;;;;;1.00;0.90;;;2.50;96.50;;;;;;6247433;23;20473;-84
2022/01/08 08:40:43;;;;;;;0.93;0.90;;;2.70;95.60;;;;;;6248976;22;20267;-85
2022/01/08 08:43:10;;;;;;;0.80;0.80;;;2.90;94.60;;;;;;6248580;22;20226;-85
2022/01/08 08:45:37;;;;;;;0.83;0.83;;;3.00;94.70;;;;;;6247477;22;20192;-84
2022/01/08 08:48:04;;;;;;;1.53;0.80;;;3.10;94.00;;;;;;6247764;22;20256;-84
2022/01/08 08:50:33;;;;;;;1.90;1.10;;;3.20;92.90;;;;;;6246794;22;20193;-84
2022/01/08 08:53:00;;;;;;;1.03;0.90;;;3.20;93.40;;;;;;6247144;22;20639;-85
2022/01/08 08:55:27;;;;;;;2.40;0.77;;;3.00;94.10;;;;;;6247314;22;20524;-85
2022/01/08 08:57:54;;;;;;;2.70;1.10;;;2.80;94.80;;;;;;6248687;22;20567;-85
2022/01/08 09:00:21;;;;;;;1.20;0.97;;;2.70;95.90;;;;;;6247777;22;20199;-84
2022/01/08 09:02:48;;;;;;;1.90;1.00;;;2.60;96.20;;;;;;6248128;22;20169;-86
2022/01/08 09:05:15;;;;;;;0.87;0.80;;;2.60;96.20;;;;;;6245175;23;20205;-82
2022/01/08 09:07:44;;;;;;;1.07;1.07;;;2.70;95.40;;;;;;6245499;22;20165;-83
2022/01/08 09:10:11;;;;;;;1.73;1.10;;;2.70;94.60;;;;;;6240749;22;20207;-88
2022/01/08 09:12:39;;;;;;;1.00;1.00;;;2.80;94.60;;;;;;6245058;22;20674;-85
2022/01/08 09:15:08;;;;;;;1.07;1.03;;;2.70;94.60;;;;;;6243188;22;20275;-83
2022/01/08 09:17:40;;;;;;;0.93;0.93;;;2.70;95.10;;;;;;6245045;22;20276;-83
2022/01/08 09:20:09;;;;;;;1.40;1.20;;;2.60;94.80;;;;;;6244301;22;20698;-89
2022/01/08 09:22:36;;;;;;;1.50;1.40;;;2.50;95.60;;;;;;6244703;22;20169;-81
2022/01/08 09:25:05;;;;;;;1.13;1.03;;;2.70;94.90;;;;;;6243242;22;20272;-84
2022/01/08 09:27:32;;;;;;;2.17;1.30;;;2.80;94.60;;;;;;6244882;22;20188;-83
2022/01/08 09:29:59;;;;;;;0.97;0.80;;;2.90;93.80;;;;;;6242564;22;20221;-81
2022/01/08 09:32:27;;;;;;;1.17;1.07;;;3.20;93.20;;;;;;6244510;22;20236;-80
2022/01/08 09:34:54;;;;;;;1.23;1.13;;;3.80;92.00;;;;;;6242959;22;20204;-80
2022/01/08 09:37:21;;;;;;;1.00;0.80;;;4.10;89.30;;;;;;6247085;22;20248;-81
2022/01/08 09:39:49;;;;;;;1.07;0.87;;;4.20;87.30;;;;;;6248852;22;20560;-81
2022/01/08 09:42:18;;;;;;;0.80;0.80;;;4.20;85.90;;;;;;6247182;22;20687;-81
2022/01/08 09:44:47;;;;;;;0.80;0.70;;;4.10;84.40;;;;;;6249203;22;20653;-82
2022/01/08 09:47:14;;;;;;;1.30;1.20;;;3.80;86.00;;;;;;6249117;22;20205;-82
2022/01/08 09:49:42;;;;;;;1.20;1.00;;;3.50;88.00;;;;;;6248893;22;20272;-83
2022/01/08 09:52:09;;;;;;;0.90;0.73;;;3.30;90.30;;;;;;6251693;22;20196;-81
2022/01/08 09:54:36;;;;;;;0.90;0.80;;;3.10;90.10;;;;;;6251064;22;20524;-82
2022/01/08 09:57:04;;;;;;;1.10;1.10;;;3.00;89.80;;;;;;6254375;22;20278;-82
2022/01/08 09:59:43;;;;;;;1.20;1.10;;;2.90;90.00;;;;;;6249183;22;20193;-82
2022/01/08 10:02:10;;;;;;;1.33;1.20;;;2.80;90.50;;;;;;6249016;22;20493;-82
2022/01/08 10:04:41;;;;;;;1.20;1.00;;;2.90;90.10;;;;;;6246785;22;20267;-82
2022/01/08 10:07:16;;;;;;;1.07;1.00;;;2.80;89.50;;;;;;6249848;22;20223;-82
2022/01/08 10:09:58;;;;;;;1.20;1.00;;;2.80;87.60;;;;;;6248142;22;20192;-83
2022/01/08 10:12:37;;;;;;;1.47;0.90;;;2.70;89.70;;;;;;6251198;22;20195;-82
2022/01/08 10:17:50;;;;;;;3.33;1.07;;;2.80;87.90;;;;;;6250466;22;20216;-81
2022/01/08 10:20:32;;;;;;;2.50;0.90;;;3.00;87.70;;;;;;6250444;22;20196;-82
2022/01/08 10:23:01;;;;;;;2.03;0.80;;;3.00;87.70;;;;;;6251206;22;20181;-82
2022/01/08 10:25:28;;;;;;;1.83;1.20;;;3.00;86.80;;;;;;6250914;22;20276;-82
2022/01/08 10:27:55;;;;;;;1.07;0.97;;;3.00;86.20;;;;;;6252516;22;20196;-82
2022/01/08 10:30:27;;;;;;;1.17;1.10;;;3.10;86.10;;;;;;6251483;22;20203;-82
2022/01/08 10:32:59;;;;;;;1.10;1.00;;;3.00;85.20;;;;;;6252194;22;20199;-82
2022/01/08 10:35:47;;;;;;;1.00;1.00;;;3.00;87.70;;;;;;6251852;22;20205;-82
2022/01/08 10:38:15;;;;;;;1.43;1.10;;;3.10;87.10;;;;;;6252551;22;20157;-84
2022/01/08 10:40:42;;;;;;;1.63;1.10;;;3.20;86.00;;;;;;6250529;22;20276;-82
2022/01/08 10:43:21;;;;;;;1.20;1.10;;;3.10;85.00;;;;;;6251708;22;20179;-82
2022/01/08 10:45:53;;;;;;;1.30;1.10;;;3.30;86.30;;;;;;6250958;22;20212;-82
2022/01/08 10:48:28;;;;;;;1.23;1.10;;;3.30;84.50;;;;;;6251802;22;20153;-82
2022/01/08 10:51:12;;;;;;;1.50;1.20;;;3.40;84.00;;;;;;6251317;22;20292;-82
2022/01/08 10:54:09;;;;;;;1.40;1.30;;;3.60;83.50;;;;;;6253044;22;20486;-82
2022/01/08 10:56:39;;;;;;;2.30;1.20;;;3.70;81.40;;;;;;6183272;23;20200;-82
2022/01/08 10:59:11;;;;;;;1.30;1.20;;;4.10;79.90;;;;;;6258093;22;20185;-85
2022/01/08 11:01:58;;;;;;;1.20;1.10;;;4.40;77.80;;;;;;6251976;22;20551;-85
2022/01/08 11:04:38;;;;;;;1.53;1.43;;;4.80;71.20;;;;;;6251210;22;20212;-88
2022/01/08 11:07:17;;;;;;;2.03;1.47;;;5.10;69.80;;;;;;6251904;22;20157;-87
2022/01/08 11:09:46;;;;;;;2.53;1.30;;;5.60;69.70;;;;;;6254632;22;20335;-88
2022/01/08 11:12:17;;;;;;;1.48;1.33;;;5.80;63.60;;;;;;6256599;22;20212;-87
2022/01/08 11:14:59;;;;;;;2.22;1.30;;;5.70;59.50;;;;;;6253067;22;20188;-88
2022/01/08 11:17:34;;;;;;;1.30;1.20;;;5.20;64.10;;;;;;6253996;22;20197;-85
2022/01/08 11:20:09;;;;;;;1.70;1.60;;;4.60;69.30;;;;;;6246912;22;20529;-82
2022/01/08 11:22:37;;;;;;;1.47;1.37;;;4.10;72.70;;;;;;6252658;22;20193;-83
2022/01/08 11:25:07;;;;;;;2.00;1.80;;;3.80;75.90;;;;;;6252406;22;20227;-84
2022/01/08 11:27:42;;;;;;;2.07;1.67;;;3.50;78.70;;;;;;6254372;22;20187;-82
2022/01/08 11:30:19;;;;;;;2.57;1.80;;;3.50;78.80;;;;;;6251682;22;20255;-83
2022/01/08 11:32:48;;;;;;;2.27;1.77;;;3.50;79.40;;;;;;6253807;22;20192;-83
2022/01/08 11:35:16;;;;;;;2.70;1.77;;;3.50;79.80;;;;;;6250435;22;20645;-82
2022/01/08 11:37:46;;;;;;;2.30;1.70;;;3.70;80.10;;;;;;6253198;22;20169;-86
2022/01/08 11:40:15;;;;;;;2.10;1.80;;;3.90;79.90;;;;;;6249291;22;20209;-85
2022/01/08 11:42:43;;;;;;;2.27;1.60;;;4.10;78.40;;;;;;6250229;22;20180;-84
2022/01/08 11:45:14;;;;;;;2.60;2.27;;;4.30;73.50;;;;;;6249261;22;20205;-84
2022/01/08 11:47:45;;;;;;;1.93;1.70;;;4.30;74.70;;;;;;6248635;22;20213;-83
2022/01/08 11:50:28;;;;;;;2.27;2.07;;;4.30;69.50;;;;;;6249593;22;20197;-83
2022/01/08 11:53:16;;;;;;;1.83;1.70;;;4.20;74.30;;;;;;6254078;22;20177;-82
2022/01/08 11:55:48;;;;;;;2.10;1.90;;;4.40;72.20;;;;;;6249729;22;20564;-83
2022/01/08 11:58:22;;;;;;;3.10;1.90;;;4.60;72.60;;;;;;6252038;22;20172;-84
2022/01/08 12:00:54;;;;;;;2.10;1.90;;;4.70;69.40;;;;;;6253671;22;20200;-83
2022/01/08 12:03:24;;;;;;;2.27;1.57;;;4.50;69.20;;;;;;6258734;22;20158;-83
2022/01/08 12:05:52;;;;;;;1.90;1.50;;;4.10;68.80;;;;;;6257606;22;20562;-83
2022/01/08 12:08:19;;;;;;;1.87;1.60;;;3.80;72.70;;;;;;6257210;22;20224;-84
2022/01/08 12:10:57;;;;;;;2.27;1.77;;;3.60;76.40;;;;;;6257924;22;20224;-84
2022/01/08 12:13:44;;;;;;;2.53;1.60;;;3.60;78.30;;;;;;6254267;22;20187;-85
2022/01/08 12:16:32;;;;;;;1.87;1.60;;;3.60;77.80;;;;;;6255658;22;20205;-88
2022/01/08 12:19:00;;;;;;;1.87;1.63;;;3.60;75.90;;;;;;6256675;22;20211;-86
2022/01/08 12:21:34;;;;;;;1.63;1.50;;;3.50;75.70;;;;;;6256337;22;20221;-84
2022/01/08 12:24:34;;;;;;;1.57;1.47;;;3.40;76.30;;;;;;6256467;22;20221;-86
2022/01/08 12:27:03;;;;;;;2.00;1.70;;;3.30;75.60;;;;;;6258682;22;20188;-86
2022/01/08 12:29:34;;;;;;;2.80;1.67;;;3.10;77.10;;;;;;6251498;22;20271;-85
2022/01/08 12:32:29;;;;;;;2.20;1.77;;;3.10;79.40;;;;;;6254819;22;20260;-88
2022/01/08 12:35:21;;;;;;;2.47;1.90;;;2.90;77.20;;;;;;6256567;22;20212;-89
2022/01/08 12:37:51;;;;;;;1.70;1.60;;;2.80;79.20;;;;;;6253748;22;20206;-86
2022/01/08 12:40:37;;;;;;;3.27;1.77;;;3.00;78.90;;;;;;6257537;22;20245;-85
2022/01/08 12:43:28;;;;;;;2.50;1.90;;;3.00;79.20;;;;;;6259119;22;20196;-84
2022/01/08 12:46:12;;;;;;;2.30;1.83;;;3.00;79.50;;;;;;6258843;22;20281;-84
2022/01/08 12:48:39;;;;;;;1.80;1.70;;;3.00;79.00;;;;;;6257466;22;20217;-87
2022/01/08 12:51:07;;;;;;;2.10;1.90;;;2.90;79.30;;;;;;6261371;22;20279;-84
2022/01/08 12:53:36;;;;;;;3.83;2.10;;;3.00;79.30;;;;;;6261410;22;20185;-84
2022/01/08 12:56:19;;;;;;;2.43;1.90;;;2.90;79.10;;;;;;6261037;22;20251;-85
2022/01/08 12:58:53;;;;;;;2.23;1.73;;;3.00;79.40;;;;;;6261470;22;20233;-85
2022/01/08 13:01:26;;;;;;;2.33;2.03;;;3.00;78.60;;;;;;6260591;22;20200;-85
2022/01/08 13:03:55;;;;;;;3.40;1.90;;;3.10;78.10;;;;;;6259497;23;20184;-85
2022/01/08 13:06:44;;;;;;;3.37;2.17;;;3.10;79.20;;;;;;6244552;23;20240;-85
2022/01/08 13:09:13;;;;;;;2.10;2.00;;;3.00;79.80;;;;;;6252608;22;20204;-85
2022/01/08 13:11:43;;;;;;;3.97;2.20;;;3.10;78.50;;;;;;6257347;22;20417;-85
2022/01/08 13:14:14;;;;;;;2.40;2.20;;;3.00;79.50;;;;;;6258054;22;20185;-86
2022/01/08 13:16:43;;;;;;;2.50;2.10;;;2.90;79.20;;;;;;6258341;22;20256;-85
2022/01/08 13:19:12;;;;;;;3.17;2.37;;;2.70;81.40;;;;;;6251851;22;20165;-85
2022/01/08 13:21:41;;;;;;;2.77;2.00;;;2.80;81.20;;;;;;6250530;22;20169;-85